createdAt,value
2023-04-22T00:00:23.387Z,101061.28
2023-04-22T00:02:51.098Z,101059.53
2023-04-22T00:05:21.212Z,101049.03
2023-04-22T00:07:52.426Z,101055.13
2023-04-22T00:10:20.195Z,101070.84
2023-04-22T00:12:53.981Z,101070.84
2023-04-22T00:15:25.643Z,101069.09
2023-04-22T00:17:54.147Z,101065.59
2023-04-22T00:20:24.586Z,101069.09
2023-04-22T00:22:52.905Z,101076.97
2023-04-22T00:25:34.537Z,101072.59
2023-04-22T00:28:02.037Z,101074.34
2023-04-22T00:30:30.406Z,101073.47
2023-04-22T00:32:57.948Z,101071.69
2023-04-22T00:35:26.175Z,101078.72
2023-04-22T00:37:54.122Z,101080.47
2023-04-22T00:40:24.698Z,101081.31
2023-04-22T00:42:57.482Z,101076.94
2023-04-22T00:45:27.587Z,101067.31
2023-04-22T00:47:56.726Z,101069.06
2023-04-22T00:50:28.063Z,101075.19
2023-04-22T00:52:59.222Z,101078.69
2023-04-22T00:55:40.393Z,101084.78
2023-04-22T00:58:14.469Z,101074.31
2023-04-22T01:00:41.926Z,101072.56
2023-04-22T01:03:10.903Z,101077.78
2023-04-22T01:05:39.532Z,101075.19
2023-04-22T01:08:07.087Z,101076.91
2023-04-22T01:10:37.889Z,101083.03
2023-04-22T01:13:05.283Z,101077.78
2023-04-22T01:15:33.234Z,101079.53
2023-04-22T01:18:04.703Z,101084.75
2023-04-22T01:20:32.119Z,101084.75
2023-04-22T01:23:03.442Z,101080.38
2023-04-22T01:25:30.870Z,101084.75
2023-04-22T01:27:58.695Z,101087.38
2023-04-22T01:30:36.694Z,101087.38
2023-04-22T01:33:07.273Z,101077.75
2023-04-22T01:35:37.384Z,101079.50
2023-04-22T01:38:08.377Z,101072.50
2023-04-22T01:40:35.805Z,101073.31
2023-04-22T01:43:03.522Z,101073.31
2023-04-22T01:45:33.863Z,101073.31
2023-04-22T01:48:01.401Z,101077.69
2023-04-22T01:50:31.760Z,101070.72
2023-04-22T01:53:02.372Z,101082.06
2023-04-22T01:55:36.368Z,101075.06
2023-04-22T01:58:09.549Z,101071.56
2023-04-22T02:00:50.127Z,101070.66
2023-04-22T02:03:17.605Z,101062.78
2023-04-22T02:05:45.419Z,101070.66
2023-04-22T02:08:13.117Z,101075.88
2023-04-22T02:10:40.790Z,101068.91
2023-04-22T02:13:10.910Z,101082.88
2023-04-22T02:15:41.539Z,101081.13
2023-04-22T02:18:12.066Z,101075.88
2023-04-22T02:20:49.809Z,101078.47
2023-04-22T02:23:20.360Z,101085.50
2023-04-22T02:25:53.774Z,101083.75
2023-04-22T02:28:21.136Z,101092.50
2023-04-22T02:30:48.488Z,101095.09
2023-04-22T02:33:15.924Z,101097.72
2023-04-22T02:35:43.259Z,101096.00
2023-04-22T02:38:18.831Z,101096.88
2023-04-22T02:40:49.375Z,101087.31
2023-04-22T02:43:20.701Z,101089.00
2023-04-22T02:45:48.550Z,101085.56
2023-04-22T02:48:18.965Z,101083.81
2023-04-22T02:50:46.634Z,101087.31
2023-04-22T02:53:16.787Z,101084.69
2023-04-22T02:55:44.052Z,101095.22
2023-04-22T02:58:14.452Z,101093.44
2023-04-22T03:00:41.651Z,101099.59
2023-04-22T03:03:08.950Z,101095.22
2023-04-22T03:05:36.134Z,101101.34
2023-04-22T03:08:03.251Z,101088.25
2023-04-22T03:10:31.039Z,101099.63
2023-04-22T03:12:58.474Z,101097.00
2023-04-22T03:15:26.354Z,101102.25
2023-04-22T03:17:55.074Z,101098.75
2023-04-22T03:20:23.802Z,101103.09
2023-04-22T03:22:51.025Z,101103.13
2023-04-22T03:25:18.190Z,101097.84
2023-04-22T03:27:51.007Z,101100.47
2023-04-22T03:30:19.251Z,101100.47
2023-04-22T03:32:47.615Z,101098.72
2023-04-22T03:35:25.040Z,101096.97
2023-04-22T03:37:53.827Z,101100.47
2023-04-22T03:40:31.440Z,101105.66
2023-04-22T03:43:00.025Z,101097.81
2023-04-22T03:45:27.388Z,101103.06
2023-04-22T03:48:09.828Z,101104.78
2023-04-22T03:50:42.641Z,101107.34
2023-04-22T03:53:10.212Z,101102.09
2023-04-22T03:55:38.605Z,101101.22
2023-04-22T03:58:06.069Z,101095.13
2023-04-22T04:00:33.692Z,101091.63
2023-04-22T04:03:10.036Z,101094.25
2023-04-22T04:05:37.922Z,101089.81
2023-04-22T04:08:05.023Z,101099.44
2023-04-22T04:10:32.352Z,101095.94
2023-04-22T04:13:00.792Z,101098.47
2023-04-22T04:15:32.875Z,101091.50
2023-04-22T04:18:01.567Z,101094.97
2023-04-22T04:20:31.767Z,101095.88
2023-04-22T04:22:59.349Z,101097.63
2023-04-22T04:25:26.839Z,101090.66
2023-04-22T04:27:54.346Z,101091.50
2023-04-22T04:30:22.135Z,101090.63
2023-04-22T04:32:54.221Z,101090.50
2023-04-22T04:35:21.740Z,101092.25
2023-04-22T04:37:54.042Z,101094.97
2023-04-22T04:40:22.168Z,101087.13
2023-04-22T04:43:04.919Z,101100.22
2023-04-22T04:45:38.055Z,101091.47
2023-04-22T04:48:09.809Z,101093.13
2023-04-22T04:50:44.597Z,101090.44
2023-04-22T04:53:12.703Z,101087.84
2023-04-22T04:55:42.665Z,101089.59
2023-04-22T04:58:25.037Z,101088.72
2023-04-22T05:01:06.778Z,101091.28
2023-04-22T05:03:34.467Z,101091.28
2023-04-22T05:06:01.875Z,101086.03
2023-04-22T05:08:29.200Z,101091.28
2023-04-22T05:11:03.687Z,101091.28
2023-04-22T05:13:31.212Z,101094.69
2023-04-22T05:15:59.983Z,101093.81
2023-04-22T05:18:27.398Z,101086.75
2023-04-22T05:20:55.728Z,101086.75
2023-04-22T05:23:23.390Z,101073.72
2023-04-22T05:25:53.768Z,101091.19
2023-04-22T05:28:23.629Z,101089.44
2023-04-22T05:30:55.101Z,101090.25
2023-04-22T05:33:22.670Z,101080.63
2023-04-22T05:35:52.489Z,101091.13
2023-04-22T05:38:20.299Z,101091.13
2023-04-22T05:40:47.380Z,101093.81
2023-04-22T05:43:16.398Z,101096.38
2023-04-22T05:45:50.425Z,101099.84
2023-04-22T05:48:18.678Z,101103.34
2023-04-22T05:50:57.057Z,101100.72
2023-04-22T05:53:26.567Z,101106.00
2023-04-22T05:55:54.259Z,101106.03
2023-04-22T05:58:21.502Z,101103.44
2023-04-22T06:00:57.511Z,101102.56
2023-04-22T06:03:51.832Z,101110.47
2023-04-22T06:06:19.489Z,101100.03
2023-04-22T06:08:47.684Z,101115.72
2023-04-22T06:11:14.944Z,101107.91
2023-04-22T06:13:42.123Z,101109.69
2023-04-22T06:16:10.718Z,101107.09
2023-04-22T06:18:38.498Z,101112.34
2023-04-22T06:21:10.954Z,101112.41
2023-04-22T06:23:38.250Z,101113.22
2023-04-22T06:26:05.705Z,101116.81
2023-04-22T06:28:33.597Z,101113.38
2023-04-22T06:31:05.680Z,101116.03
2023-04-22T06:33:32.870Z,101113.47
2023-04-22T06:36:01.669Z,101109.97
2023-04-22T06:38:31.358Z,101111.72
2023-04-22T06:41:23.670Z,101100.38
2023-04-22T06:43:52.968Z,101107.41
2023-04-22T06:46:39.168Z,101114.41
2023-04-22T06:49:26.422Z,101117.09
2023-04-22T06:52:24.107Z,101122.34
2023-04-22T06:54:54.326Z,101117.97
2023-04-22T06:57:21.510Z,101121.47
2023-04-22T06:59:53.987Z,101117.09
2023-04-22T07:02:22.199Z,101103.09
2023-04-22T07:04:52.513Z,101101.41
2023-04-22T07:07:20.101Z,101104.91
2023-04-22T07:09:51.354Z,101107.56
2023-04-22T07:12:21.160Z,101109.31
2023-04-22T07:14:50.003Z,101120.72
2023-04-22T07:17:19.813Z,101117.22
2023-04-22T07:19:47.161Z,101109.38
2023-04-22T07:22:14.509Z,101112.94
2023-04-22T07:24:45.954Z,101111.19
2023-04-22T07:27:19.366Z,101112.94
2023-04-22T07:29:46.731Z,101116.47
2023-04-22T07:32:16.893Z,101103.38
2023-04-22T07:34:56.283Z,101095.47
2023-04-22T07:37:56.874Z,101103.34
2023-04-22T07:40:46.864Z,101095.50
2023-04-22T07:43:27.191Z,101097.25
2023-04-22T07:46:00.720Z,101105.88
2023-04-22T07:48:31.513Z,101098.94
2023-04-22T07:51:10.618Z,101102.53
2023-04-22T07:53:42.194Z,101104.31
2023-04-22T07:56:15.384Z,101099.06
2023-04-22T07:58:45.816Z,101098.19
2023-04-22T08:01:18.720Z,101105.22
2023-04-22T08:03:53.362Z,101101.72
2023-04-22T08:06:23.656Z,101096.47
2023-04-22T08:08:53.928Z,101101.72
2023-04-22T08:11:32.802Z,101094.66
2023-04-22T08:14:09.859Z,101099.06
2023-04-22T08:16:41.911Z,101099.94
2023-04-22T08:19:12.939Z,101089.34
2023-04-22T08:21:47.743Z,101091.19
2023-04-22T08:24:29.293Z,101094.75
2023-04-22T08:27:04.812Z,101093.84
2023-04-22T08:29:44.259Z,101096.47
2023-04-22T08:32:43.115Z,101096.44
2023-04-22T08:35:21.714Z,101098.84
2023-04-22T08:38:05.976Z,101102.31
2023-04-22T08:40:50.037Z,101103.19
2023-04-22T08:43:36.926Z,101091.53
2023-04-22T08:47:04.139Z,101092.81
2023-04-22T08:49:39.905Z,101099.44
2023-04-22T08:53:02.775Z,101090.94
2023-04-22T08:55:50.898Z,101098.63
2023-04-22T08:58:26.342Z,101080.09
2023-04-22T09:01:17.294Z,101089.31
2023-04-22T09:03:55.753Z,101084.56
2023-04-22T09:06:39.226Z,101088.00
2023-04-22T09:12:32.677Z,101087.94
2023-04-22T09:15:14.095Z,101084.03
2023-04-22T09:17:52.895Z,101087.53
2023-04-22T09:20:51.682Z,101093.25
2023-04-22T09:23:32.025Z,101092.44
2023-04-22T09:26:11.821Z,101088.94
2023-04-22T09:29:01.262Z,101092.72
2023-04-22T09:31:36.800Z,101087.53
2023-04-22T09:34:14.108Z,101090.59
2023-04-22T09:37:08.535Z,101087.41
2023-04-22T09:40:14.886Z,101087.72
2023-04-22T09:43:01.545Z,101086.81
2023-04-22T09:45:53.278Z,101090.22
2023-04-22T09:48:47.644Z,101094.81
2023-04-22T09:51:19.967Z,101082.50
2023-04-22T09:54:24.250Z,101087.81
2023-04-22T09:57:13.310Z,101088.38
2023-04-22T10:00:00.559Z,101089.00
2023-04-22T10:02:37.791Z,101087.41
2023-04-22T10:05:12.543Z,101088.63
2023-04-22T10:07:55.271Z,101078.78
2023-04-22T10:13:23.607Z,101092.34
2023-04-22T10:16:09.486Z,101085.09
2023-04-22T10:18:48.284Z,101087.34
2023-04-22T10:21:29.545Z,101084.00
2023-04-22T10:24:12.958Z,101088.75
2023-04-22T10:26:52.087Z,101085.03
2023-04-22T10:29:28.253Z,101090.34
2023-04-22T10:32:12.914Z,101091.97
2023-04-22T10:34:44.486Z,101088.19
2023-04-22T10:37:18.482Z,101084.34
2023-04-22T10:40:31.621Z,101085.66
2023-04-22T10:43:16.496Z,101073.69
2023-04-22T10:45:59.688Z,101079.06
2023-04-22T10:49:08.835Z,101082.69
2023-04-22T10:51:48.196Z,101078.88
2023-04-22T10:54:50.264Z,101085.50
2023-04-22T10:57:24.995Z,101076.38
2023-04-22T11:03:33.604Z,101085.50
2023-04-22T11:06:29.760Z,101086.94
2023-04-22T11:09:27.310Z,101081.31
2023-04-22T11:12:32.091Z,101089.44
2023-04-22T11:15:25.073Z,101076.13
2023-04-22T11:18:02.677Z,101070.88
2023-04-22T11:20:44.516Z,101075.75
2023-04-22T11:23:33.236Z,101069.38
2023-04-22T11:26:13.043Z,101068.25
2023-04-22T11:28:57.027Z,101085.06
2023-04-22T11:31:52.950Z,101075.22
2023-04-22T11:34:32.584Z,101067.50
2023-04-22T11:37:07.858Z,101064.97
2023-04-22T11:39:44.377Z,101066.34
2023-04-22T11:42:24.148Z,101062.97
2023-04-22T11:45:00.660Z,101057.63
2023-04-22T11:47:37.678Z,101066.03
2023-04-22T11:50:38.515Z,101062.78
2023-04-22T11:53:26.191Z,101062.44
2023-04-22T11:56:06.831Z,101071.75
2023-04-22T11:58:59.408Z,101070.25
2023-04-22T12:01:51.711Z,101072.78
2023-04-22T12:04:29.376Z,101065.91
2023-04-22T12:07:22.361Z,101056.59
2023-04-22T12:10:15.826Z,101047.16
2023-04-22T12:12:44.590Z,101061.44
2023-04-22T12:15:18.903Z,101057.00
2023-04-22T12:18:14.808Z,101053.66
2023-04-22T12:21:03.401Z,101058.91
2023-04-22T12:26:33.371Z,101065.66
2023-04-22T12:29:10.718Z,101070.97
2023-04-22T12:31:39.655Z,101071.84
2023-04-22T12:34:07.759Z,101070.81
2023-04-22T12:36:41.233Z,101059.28
2023-04-22T12:39:26.725Z,101046.91
2023-04-22T12:42:00.044Z,101063.56
2023-04-22T12:44:27.738Z,101062.84
2023-04-22T12:46:58.514Z,101061.75
2023-04-22T12:49:28.653Z,101063.06
2023-04-22T12:51:59.600Z,101058.06
2023-04-22T12:54:28.721Z,101059.06
2023-04-22T12:57:02.517Z,101047.78
2023-04-22T12:59:41.867Z,101055.00
2023-04-22T13:02:20.176Z,101050.13
2023-04-22T13:04:47.589Z,101053.28
2023-04-22T13:07:15.252Z,101056.88
2023-04-22T13:09:52.082Z,101041.63
2023-04-22T13:12:32.178Z,101041.00
2023-04-22T13:14:59.722Z,101022.19
2023-04-22T13:17:29.940Z,101018.34
2023-04-22T13:19:57.604Z,101023.41
2023-04-22T13:22:24.784Z,101016.59
2023-04-22T13:24:52.464Z,101020.03
2023-04-22T13:27:22.066Z,101013.34
2023-04-22T13:29:49.459Z,101017.28
2023-04-22T13:32:22.716Z,101019.44
2023-04-22T13:34:53.516Z,101014.31
2023-04-22T13:37:24.904Z,101014.63
2023-04-22T13:39:57.306Z,101020.44
2023-04-22T13:42:24.742Z,101018.34
2023-04-22T13:44:54.112Z,101008.97
2023-04-22T13:47:21.532Z,101011.94
2023-04-22T13:49:49.260Z,101024.88
2023-04-22T13:52:18.820Z,101022.78
2023-04-22T13:54:48.810Z,101019.09
2023-04-22T13:57:16.196Z,101022.53
2023-04-22T13:59:43.278Z,101028.13
2023-04-22T14:02:18.320Z,101035.22
2023-04-22T14:04:45.839Z,101026.13
2023-04-22T14:07:13.994Z,101020.16
2023-04-22T14:09:44.247Z,101003.38
2023-04-22T14:12:12.345Z,101005.50
2023-04-22T14:14:39.912Z,101007.84
2023-04-22T14:17:07.489Z,101005.88
2023-04-22T14:19:36.695Z,100997.69
2023-04-22T14:22:13.025Z,100993.25
2023-04-22T14:24:43.130Z,100987.78
2023-04-22T14:27:12.582Z,100987.88
2023-04-22T14:29:44.044Z,100984.97
2023-04-22T14:32:13.300Z,100979.19
2023-04-22T14:34:40.888Z,100975.59
2023-04-22T14:37:11.187Z,100975.84
2023-04-22T14:39:38.991Z,100979.00
2023-04-22T14:42:06.510Z,100976.09
2023-04-22T14:44:33.701Z,100981.84
2023-04-22T14:47:01.012Z,100971.94
2023-04-22T14:49:28.286Z,100973.75
2023-04-22T14:52:01.075Z,100975.03
2023-04-22T14:54:28.629Z,100960.03
2023-04-22T14:56:56.627Z,100965.59
2023-04-22T14:59:27.159Z,100971.72
2023-04-22T15:01:58.168Z,100967.28
2023-04-22T15:04:26.880Z,100965.94
2023-04-22T15:06:57.685Z,100959.19
2023-04-22T15:09:24.962Z,100957.19
2023-04-22T15:11:54.991Z,100937.22
2023-04-22T15:14:22.527Z,100936.75
2023-04-22T15:16:49.852Z,100932.00
2023-04-22T15:19:17.112Z,100924.63
2023-04-22T15:21:44.261Z,100921.81
2023-04-22T15:24:11.444Z,100930.22
2023-04-22T15:26:41.025Z,100931.06
2023-04-22T15:29:08.416Z,100939.84
2023-04-22T15:31:35.521Z,100948.56
2023-04-22T15:34:02.718Z,100954.78
2023-04-22T15:36:31.732Z,100956.31
2023-04-22T15:38:59.768Z,100963.38
2023-04-22T15:41:30.522Z,100969.63
2023-04-22T15:43:57.807Z,100960.44
2023-04-22T15:46:33.353Z,100958.88
2023-04-22T15:49:00.900Z,100973.03
2023-04-22T15:51:29.225Z,100965.38
2023-04-22T15:54:02.949Z,100976.88
2023-04-22T15:56:30.308Z,100979.53
2023-04-22T15:58:57.599Z,100991.22
2023-04-22T16:01:25.120Z,100985.16
2023-04-22T16:03:52.828Z,100975.44
2023-04-22T16:06:20.470Z,100976.09
2023-04-22T16:08:47.862Z,100983.03
2023-04-22T16:11:15.867Z,100967.69
2023-04-22T16:13:43.730Z,100987.28
2023-04-22T16:16:11.521Z,100978.41
2023-04-22T16:18:40.021Z,100978.94
2023-04-22T16:21:11.280Z,100980.94
2023-04-22T16:23:41.611Z,100984.75
2023-04-22T16:26:09.409Z,100985.41
2023-04-22T16:28:36.602Z,100993.34
2023-04-22T16:31:04.237Z,100999.53
2023-04-22T16:33:33.950Z,100999.09
2023-04-22T16:36:01.430Z,100985.03
2023-04-22T16:38:28.722Z,100990.25
2023-04-22T16:40:56.360Z,100994.50
2023-04-22T16:43:24.286Z,101004.28
2023-04-22T16:45:51.623Z,100982.34
2023-04-22T16:48:19.400Z,100993.03
2023-04-22T16:50:46.871Z,100993.81
2023-04-22T16:53:14.323Z,100989.38
2023-04-22T16:55:41.671Z,100989.28
2023-04-22T16:58:09.216Z,100991.09
2023-04-22T17:00:37.064Z,100992.84
2023-04-22T17:03:05.527Z,100991.00
2023-04-22T17:05:33.309Z,100985.75
2023-04-22T17:08:00.754Z,100990.91
2023-04-22T17:10:28.940Z,100995.25
2023-04-22T17:12:56.325Z,101005.84
2023-04-22T17:15:23.650Z,101004.78
2023-04-22T17:17:52.001Z,101005.13
2023-04-22T17:20:19.605Z,101003.34
2023-04-22T17:22:49.306Z,100998.13
2023-04-22T17:25:16.563Z,101003.53
2023-04-22T17:27:43.801Z,100998.34
2023-04-22T17:30:11.479Z,100985.97
2023-04-22T17:32:38.683Z,100995.63
2023-04-22T17:35:09.472Z,100992.84
2023-04-22T17:37:36.980Z,100993.72
2023-04-22T17:40:07.451Z,100997.94
2023-04-22T17:42:45.899Z,101004.22
2023-04-22T17:45:15.871Z,101007.91
2023-04-22T17:47:43.614Z,101005.19
2023-04-22T17:50:11.416Z,101001.69
2023-04-22T17:52:40.416Z,101001.78
2023-04-22T17:55:08.393Z,101004.38
2023-04-22T17:57:35.761Z,100997.13
2023-04-22T18:00:04.009Z,100992.94
2023-04-22T18:02:35.372Z,100992.22
2023-04-22T18:05:03.421Z,101004.38
2023-04-22T18:07:30.771Z,101001.78
2023-04-22T18:09:58.096Z,101013.09
2023-04-22T18:12:30.366Z,101021.13
2023-04-22T18:14:58.629Z,101020.22
2023-04-22T18:17:26.140Z,101032.47
2023-04-22T18:20:09.713Z,101035.16
2023-04-22T18:22:44.502Z,101036.03
2023-04-22T18:25:11.666Z,101043.88
2023-04-22T18:27:42.698Z,101045.66
2023-04-22T18:30:13.145Z,101049.19
2023-04-22T18:32:40.756Z,101054.41
2023-04-22T18:35:08.699Z,101051.75
2023-04-22T18:37:36.211Z,101054.41
2023-04-22T18:40:05.468Z,101052.66
2023-04-22T18:42:32.850Z,101052.66
2023-04-22T18:45:01.940Z,101056.16
2023-04-22T18:47:33.370Z,101051.81
2023-04-22T18:50:05.415Z,101057.03
2023-04-22T18:52:33.342Z,101052.69
2023-04-22T18:55:06.784Z,101058.78
2023-04-22T18:57:43.995Z,101055.28
2023-04-22T19:00:13.453Z,101062.31
2023-04-22T19:02:42.346Z,101065.81
2023-04-22T19:05:10.271Z,101057.94
2023-04-22T19:07:38.532Z,101063.16
2023-04-22T19:10:07.089Z,101066.66
2023-04-22T19:12:34.657Z,101064.06
2023-04-22T19:15:02.196Z,101070.97
2023-04-22T19:17:29.336Z,101072.78
2023-04-22T19:19:56.580Z,101077.97
2023-04-22T19:22:24.136Z,101092.88
2023-04-22T19:24:51.491Z,101090.88
2023-04-22T19:27:19.109Z,101097.97
2023-04-22T19:29:51.513Z,101093.56
2023-04-22T19:32:19.604Z,101099.88
2023-04-22T19:34:47.621Z,101103.44
2023-04-22T19:37:14.828Z,101095.50
2023-04-22T19:39:44.278Z,101098.94
2023-04-22T19:42:11.766Z,101100.75
2023-04-22T19:44:41.376Z,101102.53
2023-04-22T19:47:08.785Z,101098.09
2023-04-22T19:49:36.157Z,101099.72
2023-04-22T19:52:09.663Z,101101.63
2023-04-22T19:54:38.746Z,101106.75
2023-04-22T19:57:07.006Z,101107.53
2023-04-22T19:59:34.779Z,101104.25
2023-04-22T20:02:02.080Z,101114.63
2023-04-22T20:04:36.719Z,101109.28
2023-04-22T20:07:07.848Z,101119.72
2023-04-22T20:09:36.597Z,101124.09
2023-04-22T20:12:05.136Z,101111.22
2023-04-22T20:14:33.237Z,101130.31
2023-04-22T20:17:00.593Z,101119.72
2023-04-22T20:19:28.577Z,101107.53
2023-04-22T20:21:57.500Z,101095.47
2023-04-22T20:24:29.632Z,101085.03
2023-04-22T20:27:00.272Z,101095.59
2023-04-22T20:29:27.669Z,101090.31
2023-04-22T20:31:55.870Z,101090.31
2023-04-22T20:34:23.321Z,101093.81
2023-04-22T20:36:53.873Z,101089.47
2023-04-22T20:39:22.568Z,101092.97
2023-04-22T20:41:54.300Z,101091.19
2023-04-22T20:44:21.481Z,101088.56
2023-04-22T20:46:48.963Z,101092.94
2023-04-22T20:49:17.589Z,101092.09
2023-04-22T20:51:44.714Z,101101.75
2023-04-22T20:54:27.781Z,101100.84
2023-04-22T20:56:57.954Z,101103.44
2023-04-22T20:59:25.145Z,101093.81
2023-04-22T21:01:54.736Z,101099.91
2023-04-22T21:04:24.195Z,101079.75
2023-04-22T21:06:52.680Z,101087.66
2023-04-22T21:09:27.302Z,101078.00
2023-04-22T21:11:57.590Z,101084.97
2023-04-22T21:14:27.085Z,101080.59
2023-04-22T21:17:01.778Z,101088.50
2023-04-22T21:19:35.493Z,101095.47
2023-04-22T21:22:06.775Z,101097.25
2023-04-22T21:24:35.259Z,101103.38
2023-04-22T21:27:03.125Z,101100.75
2023-04-22T21:29:30.690Z,101105.19
2023-04-22T21:32:07.365Z,101114.81
2023-04-22T21:34:36.307Z,101114.81
2023-04-22T21:37:04.736Z,101107.78
2023-04-22T21:39:31.992Z,101108.66
2023-04-22T21:41:59.189Z,101113.03
2023-04-22T21:44:27.121Z,101110.41
2023-04-22T21:46:54.516Z,101110.41
2023-04-22T21:49:30.528Z,101110.41
2023-04-22T21:51:57.718Z,101118.31
2023-04-22T21:54:24.848Z,101122.72
2023-04-22T21:56:51.977Z,101126.25
2023-04-22T21:59:19.232Z,101123.59
2023-04-22T22:01:46.926Z,101129.72
2023-04-22T22:04:15.947Z,101122.69
2023-04-22T22:06:45.436Z,101123.56
2023-04-22T22:09:13.990Z,101136.72
2023-04-22T22:11:41.266Z,101127.09
2023-04-22T22:14:08.671Z,101133.22
2023-04-22T22:16:36.024Z,101135.00
2023-04-22T22:19:04.829Z,101153.41
2023-04-22T22:21:33.155Z,101156.91
2023-04-22T22:24:00.494Z,101156.91
2023-04-22T22:26:28.128Z,101163.94
2023-04-22T22:28:55.673Z,101158.66
2023-04-22T22:31:22.871Z,101170.94
2023-04-22T22:33:50.072Z,101174.47
2023-04-22T22:36:17.553Z,101164.81
2023-04-22T22:38:44.696Z,101166.56
2023-04-22T22:41:12.005Z,101163.06
2023-04-22T22:43:40.602Z,101164.81
2023-04-22T22:46:08.045Z,101164.81
2023-04-22T22:48:38.001Z,101169.19
2023-04-22T22:51:05.162Z,101164.81
2023-04-22T22:53:34.501Z,101172.72
2023-04-22T22:56:01.650Z,101176.22
2023-04-22T22:58:28.749Z,101181.47
2023-04-22T23:00:56.382Z,101175.31
2023-04-22T23:03:23.620Z,101180.59
2023-04-22T23:05:54.054Z,101174.47
2023-04-22T23:08:21.208Z,101168.31
2023-04-22T23:10:48.167Z,101170.97
2023-04-22T23:13:15.296Z,101169.22
2023-04-22T23:15:42.787Z,101166.56
2023-04-22T23:18:10.225Z,101168.31
2023-04-22T23:20:37.669Z,101179.72
2023-04-22T23:23:05.301Z,101177.06
2023-04-22T23:25:32.843Z,101183.16
2023-04-22T23:28:00.858Z,101184.97
2023-04-22T23:30:28.318Z,101184.97
2023-04-22T23:32:59.858Z,101177.94
2023-04-22T23:35:27.632Z,101187.53
2023-04-22T23:37:55.195Z,101196.34
2023-04-22T23:40:25.627Z,101196.34
2023-04-22T23:42:53.582Z,101204.25
2023-04-22T23:45:20.786Z,101199.84
2023-04-22T23:47:48.085Z,101200.69
2023-04-22T23:50:16.133Z,101208.53
2023-04-22T23:52:43.392Z,101208.56
2023-04-22T23:55:11.865Z,101207.69
2023-04-22T23:57:39.390Z,101212.06
